Pagina principale
METAR-TAF:

METAR-TAF

Aeroporti :

Aeroporto di Rafha

Rafha, Arabia Saudita

latitudine: 29-37N, longitudine: 043-29E, altezza: 449 m

Osservazione

Il bollettino è stato emesso 22 minuti fa, alle 12:00 UTC
Vento 12 kt da nord-ovest
Temperature 47°C
Umidità 6%
Pressione 1007 hPa
Visibilità 10 km o più
nessuna nube inferiore a 1500 m e nessun cumulonembo

METAR: OERF 261200Z 32012KT CAVOK 47/01 Q1007

Ora: 15:22 (12:22 UTC)

Previsione

Il bollettino è stato emesso 1 ora e 22 minuti fa, alle 11:00 UTC
Previsione valida dal 26 alle 12 UTC al 27 alle 18 UTC
Vento 12 kt da nord
Visibilità 10 km o più
nessuna nube inferiore a 1500 m e nessun cumulonembo
Evoluzione graduale
dal 26 alle 16 UTC al 26 alle 18 UTC
Vento 3 kt da direzioni variabili

TAF: OERF 261100Z 2612/2718 36012KT CAVOK BECMG 2616/2618 VRB03KT

Osservazioni e previsioni meteorologiche di più di 4000 aeroporti (messaggi METAR e TAF).

Le stazioni disponibili sono rappresentate dai dischi gialli e rossi sulla carta.

Puntare il mouse per vedere il nome della stazione.

Clicca sopra per visualizzare le osservazioni e previsioni meteorologiche.

Per cambiare la mappa : fare clic sui pulsanti verdi con una croce nera per ingrandire, il pulsante verde con un trattino per diminuire, o sulla freccia verde per le mappe adiacenti.


METAR-TAF: